createdAt,value
2023-04-04T00:02:16.007Z,1.93
2023-04-04T00:04:47.839Z,1.84
2023-04-04T00:07:19.807Z,1.78
2023-04-04T00:09:52.273Z,1.84
2023-04-04T00:12:26.589Z,1.94
2023-04-04T00:15:00.417Z,2.02
2023-04-04T00:17:32.527Z,2.01
2023-04-04T00:20:04.768Z,1.96
2023-04-04T00:22:36.913Z,1.99
2023-04-04T00:25:09.772Z,1.77
2023-04-04T00:27:41.752Z,1.56
2023-04-04T00:30:15.780Z,1.41
2023-04-04T00:32:47.630Z,1.30
2023-04-04T00:35:20.020Z,1.37
2023-04-04T00:37:52.291Z,1.40
2023-04-04T00:40:24.387Z,1.39
2023-04-04T00:42:57.521Z,1.37
2023-04-04T00:45:29.798Z,1.34
2023-04-04T00:48:03.014Z,1.33
2023-04-04T00:50:35.500Z,1.27
2023-04-04T00:53:07.436Z,1.23
2023-04-04T00:55:43.357Z,1.22
2023-04-04T00:58:15.448Z,1.21
2023-04-04T01:00:47.514Z,1.23
2023-04-04T01:03:20.046Z,1.24
2023-04-04T01:05:52.357Z,1.27
2023-04-04T01:08:27.101Z,1.25
2023-04-04T01:10:59.584Z,1.23
2023-04-04T01:13:33.242Z,1.23
2023-04-04T01:16:05.416Z,1.24
2023-04-04T01:18:39.540Z,1.21
2023-04-04T01:21:14.393Z,1.23
2023-04-04T01:23:53.018Z,1.27
2023-04-04T01:26:27.167Z,1.36
2023-04-04T01:29:01.701Z,1.49
2023-04-04T01:31:39.780Z,1.48
2023-04-04T01:34:29.537Z,1.47
2023-04-04T01:37:04.971Z,1.51
2023-04-04T01:39:48.053Z,1.53
2023-04-04T01:42:21.403Z,1.48
2023-04-04T01:44:59.084Z,1.41
2023-04-04T01:47:42.544Z,1.45
2023-04-04T01:50:19.094Z,1.39
2023-04-04T01:52:51.438Z,1.48
2023-04-04T01:55:23.578Z,1.48
2023-04-04T01:57:55.620Z,1.49
2023-04-04T02:00:27.851Z,1.54
2023-04-04T02:03:00.365Z,1.53
2023-04-04T02:05:32.149Z,1.52
2023-04-04T02:08:06.361Z,1.48
2023-04-04T02:10:44.701Z,1.56
2023-04-04T02:13:16.818Z,1.50
2023-04-04T02:15:49.385Z,1.51
2023-04-04T02:18:21.376Z,1.54
2023-04-04T02:20:58.866Z,1.56
2023-04-04T02:23:30.861Z,1.66
2023-04-04T02:26:03.669Z,1.68
2023-04-04T02:28:35.575Z,1.72
2023-04-04T02:31:07.534Z,1.63
2023-04-04T02:33:39.517Z,1.69
2023-04-04T02:36:12.509Z,1.71
2023-04-04T02:38:44.595Z,1.77
2023-04-04T02:41:16.970Z,1.60
2023-04-04T02:43:49.680Z,1.62
2023-04-04T02:46:23.435Z,1.63
2023-04-04T02:49:01.960Z,1.66
2023-04-04T02:51:34.653Z,1.62
2023-04-04T02:54:06.955Z,1.59
2023-04-04T02:56:43.956Z,1.58
2023-04-04T02:59:15.921Z,1.67
2023-04-04T03:01:47.869Z,1.81
2023-04-04T03:04:20.354Z,1.72
2023-04-04T03:06:52.431Z,1.87
2023-04-04T03:09:25.407Z,2.03
2023-04-04T03:11:57.266Z,1.98
2023-04-04T03:14:29.967Z,1.94
2023-04-04T03:17:02.578Z,1.90
2023-04-04T03:19:33.573Z,1.86
2023-04-04T03:22:05.454Z,1.81
2023-04-04T03:24:39.322Z,1.77
2023-04-04T03:27:13.058Z,1.76
2023-04-04T03:29:44.957Z,1.77
2023-04-04T03:32:18.303Z,1.79
2023-04-04T03:34:53.058Z,1.78
2023-04-04T03:37:25.279Z,1.77
2023-04-04T03:39:57.099Z,1.72
2023-04-04T03:42:29.039Z,1.66
2023-04-04T03:45:04.142Z,1.71
2023-04-04T03:47:37.805Z,1.85
2023-04-04T03:50:12.407Z,1.81
2023-04-04T03:52:49.632Z,1.68
2023-04-04T03:55:21.623Z,1.62
2023-04-04T03:57:54.850Z,1.60
2023-04-04T04:00:27.301Z,1.59
2023-04-04T04:02:59.794Z,1.51
2023-04-04T04:05:31.682Z,1.40
2023-04-04T04:08:03.586Z,1.43
2023-04-04T04:10:37.302Z,1.44
2023-04-04T04:13:09.381Z,1.48
2023-04-04T04:15:41.916Z,1.48
2023-04-04T04:18:16.795Z,1.55
2023-04-04T04:20:48.706Z,1.57
2023-04-04T04:23:20.827Z,1.63
2023-04-04T04:25:54.396Z,1.58
2023-04-04T04:28:33.411Z,1.56
2023-04-04T04:31:10.063Z,1.45
2023-04-04T04:33:47.540Z,1.32
2023-04-04T04:36:20.614Z,1.32
2023-04-04T04:39:01.002Z,1.24
2023-04-04T04:41:35.476Z,1.18
2023-04-04T04:44:08.250Z,1.17
2023-04-04T04:46:40.832Z,1.11
2023-04-04T04:49:17.202Z,1.06
2023-04-04T04:51:49.119Z,1.00
2023-04-04T04:54:21.737Z,1.03
2023-04-04T04:56:58.189Z,1.06
2023-04-04T04:59:31.070Z,1.13
2023-04-04T05:02:04.624Z,1.09
2023-04-04T05:04:39.048Z,1.07
2023-04-04T05:07:12.336Z,1.13
2023-04-04T05:09:44.820Z,1.11
2023-04-04T05:12:18.114Z,1.13
2023-04-04T05:14:51.944Z,1.19
2023-04-04T05:17:24.284Z,1.13
2023-04-04T05:19:58.800Z,1.39
2023-04-04T05:22:32.307Z,1.45
2023-04-04T05:25:06.248Z,1.47
2023-04-04T05:27:38.640Z,1.46
2023-04-04T05:30:12.506Z,1.44
2023-04-04T05:32:53.538Z,1.43
2023-04-04T05:35:29.686Z,1.48
2023-04-04T05:38:03.065Z,1.48
2023-04-04T05:40:36.990Z,1.58
2023-04-04T05:43:13.515Z,1.60
2023-04-04T05:45:54.714Z,1.69
2023-04-04T05:48:27.696Z,1.63
2023-04-04T05:50:59.620Z,1.61
2023-04-04T05:53:52.257Z,1.82
2023-04-04T05:56:28.836Z,1.98
2023-04-04T05:59:02.322Z,2.03
2023-04-04T06:01:36.093Z,2.05
2023-04-04T06:04:14.953Z,1.97
2023-04-04T06:06:48.096Z,2.06
2023-04-04T06:09:20.412Z,2.10
2023-04-04T06:11:52.660Z,2.11
2023-04-04T06:14:24.763Z,2.14
2023-04-04T06:16:57.662Z,2.16
2023-04-04T06:19:30.960Z,2.13
2023-04-04T06:22:03.359Z,2.29
2023-04-04T06:24:38.184Z,2.41
2023-04-04T06:27:10.795Z,2.53
2023-04-04T06:29:42.764Z,2.35
2023-04-04T06:32:15.857Z,2.46
2023-04-04T06:34:49.424Z,2.36
2023-04-04T06:37:25.381Z,2.43
2023-04-04T06:40:04.260Z,2.42
2023-04-04T06:42:36.370Z,2.46
2023-04-04T06:45:11.648Z,2.66
2023-04-04T06:47:43.862Z,2.78
2023-04-04T06:50:16.997Z,2.75
2023-04-04T06:52:50.096Z,2.70
2023-04-04T06:55:23.427Z,2.68
2023-04-04T06:57:55.554Z,2.82
2023-04-04T07:00:30.488Z,2.93
2023-04-04T07:03:03.936Z,2.90
2023-04-04T07:05:39.400Z,2.82
2023-04-04T07:08:11.767Z,2.88
2023-04-04T07:10:44.010Z,2.89
2023-04-04T07:13:16.836Z,2.95
2023-04-04T07:15:50.221Z,2.85
2023-04-04T07:18:22.072Z,3.00
2023-04-04T07:20:54.113Z,3.12
2023-04-04T07:23:26.221Z,3.14
2023-04-04T07:25:58.112Z,3.21
2023-04-04T07:28:30.074Z,3.30
2023-04-04T07:31:03.602Z,3.40
2023-04-04T07:33:35.819Z,3.45
2023-04-04T07:36:08.471Z,3.41
2023-04-04T07:38:38.789Z,3.48
2023-04-04T07:41:11.857Z,3.63
2023-04-04T07:43:43.896Z,3.68
2023-04-04T07:46:16.657Z,3.79
2023-04-04T07:48:49.069Z,3.68
2023-04-04T07:51:28.265Z,3.66
2023-04-04T07:54:01.770Z,3.74
2023-04-04T07:56:33.878Z,3.80
2023-04-04T07:59:05.841Z,3.82
2023-04-04T08:01:38.252Z,3.83
2023-04-04T08:04:11.465Z,3.78
2023-04-04T08:06:43.562Z,3.69
2023-04-04T08:09:16.149Z,3.54
2023-04-04T08:11:48.423Z,3.39
2023-04-04T08:14:20.556Z,3.42
2023-04-04T08:16:52.640Z,3.61
2023-04-04T08:19:24.685Z,3.79
2023-04-04T08:21:56.689Z,3.82
2023-04-04T08:24:28.734Z,3.85
2023-04-04T08:27:05.086Z,3.88
2023-04-04T08:29:37.973Z,4.02
2023-04-04T08:32:10.230Z,4.01
2023-04-04T08:34:42.359Z,4.09
2023-04-04T08:37:14.721Z,3.96
2023-04-04T08:39:46.844Z,4.00
2023-04-04T08:42:22.225Z,3.86
2023-04-04T08:44:58.771Z,3.69
2023-04-04T08:47:32.505Z,3.80
2023-04-04T08:50:07.418Z,4.00
2023-04-04T08:52:41.645Z,4.08
2023-04-04T08:55:15.267Z,3.91
2023-04-04T08:57:47.882Z,3.72
2023-04-04T09:00:21.565Z,3.68
2023-04-04T09:03:03.012Z,3.78
2023-04-04T09:05:35.678Z,4.00
2023-04-04T09:08:08.400Z,4.16
2023-04-04T09:10:39.284Z,4.23
2023-04-04T09:13:15.953Z,3.96
2023-04-04T09:15:54.255Z,3.93
2023-04-04T09:18:26.500Z,3.93
2023-04-04T09:20:59.059Z,4.09
2023-04-04T09:23:31.016Z,4.10
2023-04-04T09:26:04.497Z,4.15
2023-04-04T09:28:37.857Z,4.26
2023-04-04T09:31:12.747Z,4.37
2023-04-04T09:33:44.999Z,4.41
2023-04-04T09:36:18.926Z,4.53
2023-04-04T09:38:56.434Z,4.46
2023-04-04T09:41:30.166Z,4.42
2023-04-04T09:44:01.584Z,4.34
2023-04-04T09:46:35.799Z,4.36
2023-04-04T09:49:15.069Z,4.19
2023-04-04T09:51:54.653Z,4.19
2023-04-04T09:54:30.762Z,4.23
2023-04-04T09:57:03.676Z,4.35
2023-04-04T09:59:35.145Z,4.47
2023-04-04T10:02:13.708Z,4.46
2023-04-04T10:05:03.451Z,4.49
2023-04-04T10:07:42.304Z,4.67
2023-04-04T10:10:17.578Z,4.73
2023-04-04T10:12:49.596Z,4.66
2023-04-04T10:15:25.843Z,4.85
2023-04-04T10:17:59.025Z,4.74
2023-04-04T10:20:33.229Z,4.75
2023-04-04T10:23:06.945Z,4.73
2023-04-04T10:25:40.787Z,4.69
2023-04-04T10:28:16.679Z,4.74
2023-04-04T10:31:06.179Z,4.79
2023-04-04T10:33:47.711Z,4.74
2023-04-04T10:36:24.254Z,4.82
2023-04-04T10:39:04.876Z,4.92
2023-04-04T10:41:39.164Z,4.88
2023-04-04T10:44:21.874Z,5.03
2023-04-04T10:46:56.203Z,5.08
2023-04-04T10:49:31.835Z,5.14
2023-04-04T10:52:04.284Z,5.20
2023-04-04T10:54:37.253Z,5.27
2023-04-04T10:57:09.534Z,5.58
2023-04-04T10:59:58.716Z,5.98
2023-04-04T11:02:55.585Z,6.02
2023-04-04T11:05:32.834Z,5.93
2023-04-04T11:08:09.751Z,5.86
2023-04-04T11:10:45.313Z,5.92
2023-04-04T11:13:22.034Z,5.84
2023-04-04T11:15:59.959Z,5.73
2023-04-04T11:18:50.973Z,5.94
2023-04-04T11:21:32.890Z,6.03
2023-04-04T11:24:17.685Z,5.92
2023-04-04T11:26:49.771Z,5.98
2023-04-04T11:29:54.004Z,5.68
2023-04-04T11:32:45.793Z,5.60
2023-04-04T11:35:22.392Z,5.48
2023-04-04T11:38:04.424Z,5.60
2023-04-04T11:40:53.722Z,5.55
2023-04-04T11:43:27.260Z,5.42
2023-04-04T11:46:10.887Z,5.37
2023-04-04T11:48:42.927Z,5.27
2023-04-04T11:51:17.514Z,5.21
2023-04-04T11:53:49.655Z,5.69
2023-04-04T11:56:22.498Z,5.98
2023-04-04T11:59:08.601Z,6.30
2023-04-04T12:01:44.865Z,6.65
2023-04-04T12:04:18.173Z,6.63
2023-04-04T12:06:57.764Z,6.85
2023-04-04T12:09:31.063Z,6.70
2023-04-04T12:12:01.468Z,6.60
2023-04-04T12:14:35.228Z,6.61
2023-04-04T12:17:07.387Z,6.57
2023-04-04T12:19:41.489Z,6.47
2023-04-04T12:22:13.629Z,6.36
2023-04-04T12:24:45.877Z,6.22
2023-04-04T12:27:17.170Z,6.18
2023-04-04T12:29:50.659Z,6.20
2023-04-04T12:32:23.702Z,6.17
2023-04-04T12:35:01.031Z,6.02
2023-04-04T12:37:34.370Z,5.96
2023-04-04T12:40:05.508Z,5.83
2023-04-04T12:42:38.204Z,5.83
2023-04-04T12:45:11.738Z,5.86
2023-04-04T12:47:54.442Z,5.97
2023-04-04T12:56:11.957Z,6.55
2023-04-04T12:58:50.990Z,6.57
2023-04-04T13:01:25.127Z,6.63
2023-04-04T13:03:57.363Z,7.04
2023-04-04T13:06:31.894Z,7.13
2023-04-04T13:09:07.566Z,7.37
2023-04-04T13:12:00.255Z,7.40
2023-04-04T13:15:00.248Z,7.17
2023-04-04T13:17:46.383Z,7.10
2023-04-04T13:20:21.060Z,6.80
2023-04-04T13:22:59.405Z,6.58
2023-04-04T13:25:33.932Z,6.64
2023-04-04T13:28:06.485Z,6.93
2023-04-04T13:30:38.668Z,7.32
2023-04-04T13:33:11.252Z,7.49
2023-04-04T13:35:43.244Z,7.53
2023-04-04T13:38:15.254Z,7.30
2023-04-04T13:40:47.490Z,7.14
2023-04-04T13:43:19.957Z,7.03
2023-04-04T13:45:55.577Z,7.03
2023-04-04T13:48:29.320Z,7.15
2023-04-04T13:51:01.419Z,7.47
2023-04-04T13:53:33.391Z,7.49
2023-04-04T13:58:50.462Z,7.76
2023-04-04T14:01:25.856Z,7.99
2023-04-04T14:03:58.654Z,7.87
2023-04-04T14:06:31.870Z,7.98
2023-04-04T14:09:44.171Z,7.95
2023-04-04T14:13:02.595Z,7.71
2023-04-04T14:15:35.339Z,7.87
2023-04-04T14:18:07.902Z,8.06
2023-04-04T14:20:40.319Z,7.83
2023-04-04T14:23:12.569Z,7.68
2023-04-04T14:26:18.828Z,7.63
2023-04-04T14:28:52.239Z,7.44
2023-04-04T14:31:49.172Z,7.18
2023-04-04T14:34:26.966Z,7.02
2023-04-04T14:37:00.206Z,7.03
2023-04-04T14:39:30.957Z,6.82
2023-04-04T14:42:03.091Z,6.88
2023-04-04T14:44:38.279Z,6.88
2023-04-04T14:47:10.545Z,6.85
2023-04-04T14:49:43.084Z,6.87
2023-04-04T14:52:14.945Z,6.98
2023-04-04T14:54:47.516Z,7.01
2023-04-04T14:57:18.313Z,6.95
2023-04-04T14:59:51.779Z,6.85
2023-04-04T15:02:24.004Z,6.70
2023-04-04T15:05:07.569Z,6.61
2023-04-04T15:07:39.818Z,6.57
2023-04-04T15:10:19.271Z,6.71
2023-04-04T15:12:52.456Z,6.82
2023-04-04T15:15:24.536Z,6.92
2023-04-04T15:17:58.227Z,7.01
2023-04-04T15:20:34.347Z,7.03
2023-04-04T15:23:06.590Z,6.89
2023-04-04T15:25:51.478Z,6.91
2023-04-04T15:28:24.394Z,6.85
2023-04-04T15:30:57.584Z,6.95
2023-04-04T15:33:29.730Z,6.96
2023-04-04T15:36:01.715Z,7.07
2023-04-04T15:38:36.095Z,7.07
2023-04-04T15:41:12.234Z,7.17
2023-04-04T15:43:44.640Z,7.22
2023-04-04T15:46:16.707Z,7.14
2023-04-04T15:48:51.871Z,7.10
2023-04-04T15:51:27.932Z,7.09
2023-04-04T15:54:00.294Z,6.99
2023-04-04T15:56:32.442Z,6.91
2023-04-04T15:59:04.024Z,6.93
2023-04-04T16:01:37.671Z,7.04
2023-04-04T16:04:10.367Z,7.17
2023-04-04T16:06:43.876Z,7.25
2023-04-04T16:09:16.757Z,7.32
2023-04-04T16:11:47.125Z,7.31
2023-04-04T16:14:19.033Z,7.33
2023-04-04T16:16:53.089Z,7.25
2023-04-04T16:19:26.402Z,7.14
2023-04-04T16:21:58.883Z,7.15
2023-04-04T16:24:40.348Z,7.12
2023-04-04T16:27:13.124Z,7.16
2023-04-04T16:29:45.997Z,7.16
2023-04-04T16:32:21.171Z,7.19
2023-04-04T16:34:57.237Z,7.14
2023-04-04T16:37:29.375Z,6.98
2023-04-04T16:40:02.162Z,6.89
2023-04-04T16:42:34.519Z,6.76
2023-04-04T16:45:10.425Z,6.66
2023-04-04T16:47:42.288Z,6.60
2023-04-04T16:50:16.561Z,6.58
2023-04-04T16:52:48.958Z,6.57
2023-04-04T16:55:21.953Z,6.56
2023-04-04T16:57:53.852Z,6.66
2023-04-04T17:00:26.151Z,6.74
2023-04-04T17:02:58.310Z,6.78
2023-04-04T17:05:30.925Z,6.59
2023-04-04T17:08:02.149Z,6.54
2023-04-04T17:10:34.414Z,6.44
2023-04-04T17:13:06.406Z,6.46
2023-04-04T17:15:39.527Z,6.49
2023-04-04T17:18:11.300Z,6.51
2023-04-04T17:20:43.585Z,6.53
2023-04-04T17:23:15.885Z,6.51
2023-04-04T17:25:47.962Z,6.49
2023-04-04T17:28:20.458Z,6.51
2023-04-04T17:30:53.561Z,6.47
2023-04-04T17:33:26.926Z,6.46
2023-04-04T17:35:59.262Z,6.44
2023-04-04T17:38:31.802Z,6.47
2023-04-04T17:41:04.478Z,6.38
2023-04-04T17:43:38.614Z,6.34
2023-04-04T17:46:10.520Z,6.28
2023-04-04T17:48:42.921Z,6.28
2023-04-04T17:51:13.841Z,6.31
2023-04-04T17:53:47.216Z,6.26
2023-04-04T17:56:19.447Z,6.23
2023-04-04T17:58:52.075Z,6.21
2023-04-04T18:01:25.959Z,6.11
2023-04-04T18:03:58.303Z,6.02
2023-04-04T18:06:30.598Z,5.95
2023-04-04T18:09:02.530Z,5.90
2023-04-04T18:11:36.951Z,5.96
2023-04-04T18:14:09.780Z,5.89
2023-04-04T18:16:42.537Z,5.85
2023-04-04T18:19:14.824Z,5.82
2023-04-04T18:21:49.739Z,5.79
2023-04-04T18:24:22.336Z,5.73
2023-04-04T18:26:54.852Z,5.69
2023-04-04T18:29:27.188Z,5.66
2023-04-04T18:32:03.830Z,5.71
2023-04-04T18:34:36.387Z,5.70
2023-04-04T18:37:08.306Z,5.69
2023-04-04T18:39:40.637Z,5.66
2023-04-04T18:42:13.166Z,5.64
2023-04-04T18:44:45.477Z,5.57
2023-04-04T18:47:18.251Z,5.56
2023-04-04T18:49:53.380Z,5.55
2023-04-04T18:52:25.258Z,5.50
2023-04-04T18:54:57.022Z,5.52
2023-04-04T18:57:28.840Z,5.43
2023-04-04T19:00:00.888Z,5.32
2023-04-04T19:02:34.139Z,5.27
2023-04-04T19:05:08.601Z,5.22
2023-04-04T19:07:41.993Z,5.25
2023-04-04T19:10:14.631Z,5.20
2023-04-04T19:12:44.911Z,5.20
2023-04-04T19:15:17.064Z,5.19
2023-04-04T19:17:50.317Z,5.16
2023-04-04T19:20:22.396Z,5.13
2023-04-04T19:22:54.788Z,5.08
2023-04-04T19:25:27.472Z,5.05
2023-04-04T19:28:01.172Z,5.06
2023-04-04T19:30:48.758Z,5.05
2023-04-04T19:33:22.139Z,5.13
2023-04-04T19:35:58.606Z,5.21
2023-04-04T19:38:33.151Z,5.26
2023-04-04T19:41:12.005Z,5.23
2023-04-04T19:43:46.279Z,5.25
2023-04-04T19:46:25.431Z,5.21
2023-04-04T19:48:58.945Z,5.09
2023-04-04T19:51:49.715Z,5.10
2023-04-04T19:54:30.930Z,5.11
2023-04-04T19:57:06.376Z,5.05
2023-04-04T19:59:56.558Z,4.97
2023-04-04T20:02:49.591Z,4.95
2023-04-04T20:05:57.853Z,4.95
2023-04-04T20:08:37.374Z,4.91
2023-04-04T20:11:09.621Z,4.85
2023-04-04T20:13:44.189Z,4.86
2023-04-04T20:16:17.434Z,4.93
2023-04-04T20:18:49.349Z,4.97
2023-04-04T20:21:22.988Z,4.91
2023-04-04T20:23:57.760Z,4.96
2023-04-04T20:26:54.975Z,4.96
2023-04-04T20:29:28.950Z,4.93
2023-04-04T20:32:02.386Z,4.97
2023-04-04T20:34:39.190Z,4.92
2023-04-04T20:37:16.185Z,4.95
2023-04-04T20:39:53.454Z,4.97
2023-04-04T20:42:40.740Z,4.94
2023-04-04T20:45:46.796Z,4.92
2023-04-04T20:48:37.613Z,4.93
2023-04-04T20:51:25.720Z,4.95
2023-04-04T20:53:58.942Z,4.93
2023-04-04T20:56:44.759Z,4.81
2023-04-04T20:59:36.777Z,4.64
2023-04-04T21:02:18.375Z,4.59
2023-04-04T21:04:52.140Z,4.55
2023-04-04T21:07:43.516Z,4.55
2023-04-04T21:10:44.556Z,4.47
2023-04-04T21:13:17.302Z,4.45
2023-04-04T21:15:49.776Z,4.36
2023-04-04T21:18:28.059Z,4.34
2023-04-04T21:21:17.144Z,4.35
2023-04-04T21:23:53.636Z,4.24
2023-04-04T21:26:31.927Z,4.16
2023-04-04T21:29:05.662Z,4.14
2023-04-04T21:31:39.485Z,4.02
2023-04-04T21:34:14.204Z,4.04
2023-04-04T21:36:46.894Z,4.05
2023-04-04T21:39:23.816Z,3.98
2023-04-04T21:41:57.990Z,3.92
2023-04-04T21:44:30.857Z,3.87
2023-04-04T21:47:02.641Z,3.79
2023-04-04T21:49:34.346Z,3.77
2023-04-04T21:52:06.243Z,3.83
2023-04-04T21:54:37.959Z,3.84
2023-04-04T21:57:10.241Z,3.83
2023-04-04T21:59:42.029Z,3.83
2023-04-04T22:02:14.016Z,3.85
2023-04-04T22:04:45.834Z,3.82
2023-04-04T22:07:17.698Z,3.84
2023-04-04T22:09:52.848Z,3.85
2023-04-04T22:12:24.632Z,3.81
2023-04-04T22:14:58.613Z,3.80
2023-04-04T22:17:30.464Z,3.80
2023-04-04T22:20:11.045Z,3.84
2023-04-04T22:22:43.584Z,3.81
2023-04-04T22:25:15.649Z,3.86
2023-04-04T22:27:49.709Z,3.84
2023-04-04T22:30:22.400Z,3.83
2023-04-04T22:32:52.905Z,3.85
2023-04-04T22:35:24.844Z,3.85
2023-04-04T22:38:00.924Z,3.90
2023-04-04T22:40:34.781Z,4.02
2023-04-04T22:43:06.884Z,4.17
2023-04-04T22:45:38.886Z,4.13
2023-04-04T22:48:11.270Z,4.07
2023-04-04T22:50:44.654Z,4.11
2023-04-04T22:53:16.360Z,4.13
2023-04-04T22:55:48.054Z,4.08
2023-04-04T22:58:21.833Z,4.10
2023-04-04T23:00:53.856Z,3.99
2023-04-04T23:03:25.612Z,3.94
2023-04-04T23:05:57.311Z,3.89
2023-04-04T23:08:29.169Z,3.88
2023-04-04T23:11:00.903Z,3.87
2023-04-04T23:13:34.596Z,3.96
2023-04-04T23:16:07.045Z,4.05
2023-04-04T23:18:38.748Z,3.96
2023-04-04T23:21:10.809Z,3.79
2023-04-04T23:23:42.876Z,3.85
2023-04-04T23:26:14.858Z,3.85
2023-04-04T23:28:46.661Z,3.88
2023-04-04T23:31:20.281Z,3.90
2023-04-04T23:33:52.062Z,3.87
2023-04-04T23:36:24.327Z,3.67
2023-04-04T23:38:56.081Z,3.56
2023-04-04T23:41:28.016Z,3.48
2023-04-04T23:43:59.832Z,3.56
2023-04-04T23:46:33.110Z,3.63
2023-04-04T23:49:05.135Z,3.78
2023-04-04T23:51:38.881Z,3.86
2023-04-04T23:54:13.736Z,3.91
2023-04-04T23:56:45.603Z,3.80
2023-04-04T23:59:17.729Z,3.61
